Terminal Aerodrome Forecast
Issued by NWS

Home | Current Version | Previous Version | Text Only | Print | Product List | Glossary On
Versions: 1 2 3 4 5 6 7 8 9 10 11 12 13 14 15
000
FTUS43 KICT 231200 AAA
TAFRSL
TAF AMD
KRSL 231212Z 2312/2412 15017G25KT P6SM OVC130
     FM231400 18022G30KT P6SM BKN130
     FM231600 19030G39KT P6SM SCT150
     FM240200 17022G30KT P6SM SCT150
     FM240500 33022G30KT P6SM VCTS SCT050CB OVC100=

USA.gov is the U.S. government's official web portal to all federal, state and local government web resources and services.